Time;durP1;ratioP1;P1;durP2;ratioP2;P2;SDS_P1;SDS_P2;PMS_P1;PMS_P2;Temp;Humidity;BMP_temperature;BMP_pressure;BME280_temperature;BME280_humidity;BME280_pressure;Samples;Min_cycle;Max_cycle;Signal;HPM_P1;HPM_P2
2021/10/12 00:00:13;;;;;;;11.07;3.30;;;;;;;8.81;92.72;101060.41;5012388;28;20026;-79
2021/10/12 00:02:39;;;;;;;9.90;3.80;;;;;;;8.82;92.53;101060.41;5010775;28;20037;-80
2021/10/12 00:05:06;;;;;;;10.13;3.55;;;;;;;8.79;92.45;101055.13;5012561;28;20029;-78
2021/10/12 00:07:32;;;;;;;12.93;3.10;;;;;;;8.74;92.48;101047.16;5014146;28;20034;-79
2021/10/12 00:09:57;;;;;;;8.57;3.20;;;;;;;8.67;92.72;101055.91;5028411;28;20049;-80
2021/10/12 00:12:23;;;;;;;7.50;3.00;;;;;;;8.65;92.93;101052.38;5010314;28;20034;-81
2021/10/12 00:14:48;;;;;;;10.32;3.78;;;;;;;8.60;93.34;101046.16;5011974;28;20034;-81
2021/10/12 00:17:14;;;;;;;8.27;3.33;;;;;;;8.58;93.69;101047.91;5013245;28;20058;-81
2021/10/12 00:19:40;;;;;;;11.30;3.80;;;;;;;8.55;93.77;101047.88;5012985;28;20488;-80
2021/10/12 00:22:06;;;;;;;7.80;2.80;;;;;;;8.50;93.72;101050.44;5012078;28;20037;-82
2021/10/12 00:24:32;;;;;;;8.25;3.95;;;;;;;8.46;94.43;101047.75;5014556;28;20037;-81
2021/10/12 00:26:57;;;;;;;9.82;3.55;;;;;;;8.46;93.99;101043.41;5011424;28;20034;-80
2021/10/12 00:29:23;;;;;;;11.18;3.30;;;;;;;8.48;94.20;101051.28;5011253;28;20121;-79
2021/10/12 00:31:48;;;;;;;9.20;3.50;;;;;;;8.42;93.95;101038.97;5013066;28;20102;-81
2021/10/12 00:34:13;;;;;;;9.25;3.47;;;;;;;8.40;93.55;101039.81;5012153;28;20069;-80
2021/10/12 00:36:39;;;;;;;11.27;3.63;;;;;;;8.37;93.57;101042.38;5013199;28;20060;-80
2021/10/12 00:39:04;;;;;;;10.98;3.58;;;;;;;8.30;94.02;101039.66;5011083;28;20042;-80
2021/10/12 00:41:29;;;;;;;9.32;3.47;;;;;;;8.25;94.00;101035.22;5015292;28;20093;-80
2021/10/12 00:43:55;;;;;;;5.82;2.70;;;;;;;8.22;94.46;101033.44;5011922;28;20034;-79
2021/10/12 00:46:20;;;;;;;11.48;3.45;;;;;;;8.17;94.48;101035.13;5014810;28;20037;-82
2021/10/12 00:48:46;;;;;;;8.23;2.90;;;;;;;8.19;94.55;101028.16;5008560;28;20045;-79
2021/10/12 00:51:13;;;;;;;8.52;3.40;;;;;;;8.20;94.78;101035.19;5011747;28;20034;-80
2021/10/12 00:53:39;;;;;;;9.52;3.58;;;;;;;8.17;95.03;101029.00;5023973;28;20515;-81
2021/10/12 00:56:05;;;;;;;9.13;4.03;;;;;;;8.18;94.67;101023.78;5026575;28;20047;-79
2021/10/12 00:58:31;;;;;;;7.38;3.33;;;;;;;8.21;94.39;101025.56;5008614;28;20502;-81
2021/10/12 01:00:57;;;;;;;11.93;3.53;;;;;;;8.17;94.30;101029.88;5010853;28;20042;-81
2021/10/12 01:03:22;;;;;;;11.90;3.65;;;;;;;8.16;94.84;101021.97;5025415;28;20041;-81
2021/10/12 01:05:48;;;;;;;13.40;4.25;;;;;;;8.16;95.26;101016.72;5010224;28;20046;-80
2021/10/12 01:08:13;;;;;;;10.48;3.70;;;;;;;8.12;94.57;101019.31;5011141;28;20033;-81
2021/10/12 01:10:39;;;;;;;10.68;4.35;;;;;;;8.08;95.04;101014.88;5010130;28;20034;-79
2021/10/12 01:13:06;;;;;;;10.73;4.05;;;;;;;8.11;95.03;101011.41;5016286;28;20040;-79
2021/10/12 01:15:32;;;;;;;10.38;4.15;;;;;;;8.07;94.83;101012.25;5009516;28;20038;-80
2021/10/12 01:17:59;;;;;;;11.88;4.10;;;;;;;8.08;94.89;101016.63;5013200;28;20110;-78
2021/10/12 01:20:25;;;;;;;10.73;4.45;;;;;;;8.02;95.01;101004.31;5010043;28;20037;-79
2021/10/12 01:22:50;;;;;;;10.98;4.57;;;;;;;8.01;94.62;101001.66;5011551;28;20048;-79
2021/10/12 01:25:16;;;;;;;10.38;3.80;;;;;;;7.98;94.89;100994.59;5010810;28;20045;-79
2021/10/12 01:27:41;;;;;;;12.30;4.35;;;;;;;7.93;94.69;100992.78;5016055;28;20038;-79
2021/10/12 01:30:08;;;;;;;8.73;4.45;;;;;;;7.91;94.62;100984.88;5030630;28;20050;-79
2021/10/12 01:32:38;;;;;;;13.65;5.03;;;;;;;7.87;94.61;100990.97;5016209;28;20068;-79
2021/10/12 01:35:04;;;;;;;14.13;4.38;;;;;;;7.82;94.45;100983.03;5014777;28;20087;-79
2021/10/12 01:37:30;;;;;;;12.55;4.95;;;;;;;7.79;94.12;100990.00;5014360;28;20069;-78
2021/10/12 01:39:56;;;;;;;13.05;4.40;;;;;;;7.74;93.93;100986.44;5019043;28;20033;-79
2021/10/12 01:42:21;;;;;;;15.30;5.60;;;;;;;7.72;94.69;100981.16;5015429;28;20034;-78
2021/10/12 01:44:47;;;;;;;12.98;4.63;;;;;;;7.65;93.98;100972.31;5015916;28;20068;-78
2021/10/12 01:47:12;;;;;;;8.40;3.83;;;;;;;7.58;93.69;100964.34;5014149;28;20034;-79
2021/10/12 01:49:37;;;;;;;12.07;3.95;;;;;;;7.50;93.78;100971.25;5015523;28;20086;-79
2021/10/12 01:52:03;;;;;;;12.32;4.35;;;;;;;7.44;93.62;100961.50;5023787;28;20057;-79
2021/10/12 01:54:28;;;;;;;13.93;4.97;;;;;;;7.38;93.68;100962.31;5030841;28;20030;-79
2021/10/12 01:56:54;;;;;;;10.35;4.30;;;;;;;7.35;94.47;100967.53;5013921;28;20508;-80
2021/10/12 01:59:20;;;;;;;13.57;4.30;;;;;;;7.34;94.34;100960.53;5016316;28;20036;-79
2021/10/12 02:01:46;;;;;;;10.82;3.58;;;;;;;7.27;94.56;100953.41;5014072;28;20026;-80
2021/10/12 02:04:12;;;;;;;10.10;4.30;;;;;;;7.25;94.35;100957.75;5011655;28;20045;-80
2021/10/12 02:06:38;;;;;;;10.52;3.92;;;;;;;7.23;94.61;100956.84;5012879;28;20101;-79
2021/10/12 02:09:04;;;;;;;14.82;5.13;;;;;;;7.22;94.18;100945.47;5014020;28;20046;-80
2021/10/12 02:11:29;;;;;;;17.70;5.82;;;;;;;7.19;94.79;100936.66;5014601;28;20042;-80
2021/10/12 02:13:55;;;;;;;12.63;4.55;;;;;;;7.17;94.32;100938.38;5017209;28;20042;-80
2021/10/12 02:16:21;;;;;;;10.50;4.18;;;;;;;7.14;94.32;100935.72;5016218;28;20045;-81
2021/10/12 02:18:46;;;;;;;8.88;4.20;;;;;;;7.07;94.04;100932.09;5017621;28;20033;-81
2021/10/12 02:21:11;;;;;;;8.63;3.92;;;;;;;7.07;94.61;100933.84;5015834;28;20057;-80
2021/10/12 02:23:37;;;;;;;11.18;4.10;;;;;;;7.09;94.53;100929.53;5033384;28;20445;-81
2021/10/12 02:26:03;;;;;;;14.52;4.72;;;;;;;7.07;94.76;100929.50;5014678;28;20483;-81
2021/10/12 02:28:28;;;;;;;11.68;4.43;;;;;;;7.05;94.85;100922.44;5013933;28;20098;-81
2021/10/12 02:30:54;;;;;;;17.50;4.90;;;;;;;7.05;94.78;100918.13;5017313;28;20042;-80
2021/10/12 02:33:19;;;;;;;12.80;4.60;;;;;;;7.01;94.58;100909.28;5029727;28;20050;-81
2021/10/12 02:35:44;;;;;;;14.15;4.68;;;;;;;7.02;95.44;100918.03;5016461;28;20030;-81
2021/10/12 02:38:10;;;;;;;13.02;4.88;;;;;;;7.07;94.92;100913.75;5014767;28;20513;-80
2021/10/12 02:40:35;;;;;;;20.67;6.72;;;;;;;7.09;95.08;100908.53;5016366;28;20045;-81
2021/10/12 02:43:00;;;;;;;9.20;3.60;;;;;;;7.09;95.27;100905.91;5023184;28;20072;-82
2021/10/12 02:45:26;;;;;;;11.63;4.35;;;;;;;7.08;95.88;100910.28;5023356;28;20045;-81
2021/10/12 02:47:51;;;;;;;9.73;4.32;;;;;;;7.08;95.50;100898.91;5019503;28;20037;-81
2021/10/12 02:50:16;;;;;;;11.35;4.65;;;;;;;7.06;94.75;100904.13;5022015;28;20029;-82
2021/10/12 02:52:41;;;;;;;13.93;4.40;;;;;;;7.04;95.18;100903.22;5018264;28;20045;-82
2021/10/12 02:55:08;;;;;;;9.30;3.50;;;;;;;7.06;94.99;100898.00;5037441;28;20050;-82
2021/10/12 02:57:33;;;;;;;10.02;3.13;;;;;;;7.05;95.93;100896.22;5018393;28;20073;-82
2021/10/12 03:00:00;;;;;;;13.68;3.67;;;;;;;7.06;96.18;100890.13;5021770;28;20037;-81
2021/10/12 03:02:25;;;;;;;10.25;3.58;;;;;;;7.04;95.73;100892.72;5019154;28;20029;-81
2021/10/12 03:04:51;;;;;;;11.02;3.55;;;;;;;7.01;95.77;100883.03;5023824;28;20038;-82
2021/10/12 03:07:17;;;;;;;10.27;3.47;;;;;;;6.99;95.48;100879.50;5020534;28;20056;-82
2021/10/12 03:09:43;;;;;;;8.68;3.10;;;;;;;6.99;95.77;100876.00;5019899;28;20040;-81
2021/10/12 03:12:09;;;;;;;12.80;3.47;;;;;;;6.98;95.84;100869.88;5019418;28;20038;-81
2021/10/12 03:14:36;;;;;;;11.68;3.22;;;;;;;6.98;96.02;100866.38;5019514;28;20049;-81
2021/10/12 03:17:02;;;;;;;10.32;3.25;;;;;;;6.98;96.10;100862.00;5017670;28;20033;-82
2021/10/12 03:19:27;;;;;;;11.98;3.70;;;;;;;6.95;96.25;100864.59;5024065;28;20045;-81
2021/10/12 03:22:10;;;;;;;11.38;3.03;;;;;;;6.97;96.50;100860.25;5021952;28;20057;-81
2021/10/12 03:24:35;;;;;;;;;;;;;;;6.93;95.85;100855.81;5023344;28;20026;-81
2021/10/12 03:27:00;;;;;;;12.07;3.03;;;;;;;6.96;96.34;100857.59;5034253;28;19969;-81
2021/10/12 03:29:26;;;;;;;15.98;4.13;;;;;;;6.99;96.08;100852.41;5036591;28;21702;-82
2021/10/12 03:31:51;;;;;;;11.93;3.22;;;;;;;7.04;96.40;100855.97;5025485;28;20037;-81
2021/10/12 03:34:16;;;;;;;10.35;3.38;;;;;;;6.97;96.48;100844.53;5018530;28;20197;-81
2021/10/12 03:36:42;;;;;;;12.10;3.47;;;;;;;6.99;96.16;100848.03;5019755;28;20097;-81
2021/10/12 03:39:07;;;;;;;11.68;3.47;;;;;;;6.98;96.13;100846.28;5020093;28;20045;-82
2021/10/12 03:41:32;;;;;;;9.45;3.78;;;;;;;6.98;96.09;100841.03;5025334;28;20037;-83
2021/10/12 03:43:58;;;;;;;13.23;3.17;;;;;;;6.98;96.00;100841.03;5023041;28;20054;-81
2021/10/12 03:46:23;;;;;;;15.18;4.20;;;;;;;6.97;95.88;100839.28;5021401;28;20017;-82
2021/10/12 03:48:48;;;;;;;12.75;3.70;;;;;;;6.94;95.99;100840.94;5023130;28;20033;-80
2021/10/12 03:51:14;;;;;;;9.77;2.70;;;;;;;6.94;96.21;100833.09;5034967;28;20062;-80
2021/10/12 03:53:39;;;;;;;7.88;3.08;;;;;;;6.92;95.82;100835.72;5018221;28;20042;-80
2021/10/12 03:56:05;;;;;;;10.13;3.03;;;;;;;6.93;96.61;100834.84;5015677;28;20025;-80
2021/10/12 03:58:31;;;;;;;12.32;3.08;;;;;;;7.05;96.69;100835.84;5019953;28;20050;-81
2021/10/12 04:00:56;;;;;;;12.25;3.33;;;;;;;7.13;96.10;100828.97;5017449;28;20030;-79
2021/10/12 04:03:21;;;;;;;10.23;3.95;;;;;;;7.19;96.97;100829.03;5018427;28;20041;-79
2021/10/12 04:05:47;;;;;;;12.90;3.20;;;;;;;7.33;96.33;100832.69;5026726;28;20025;-81
2021/10/12 04:08:12;;;;;;;9.13;3.10;;;;;;;7.42;96.21;100827.56;5020109;28;20057;-80
2021/10/12 04:10:38;;;;;;;8.23;2.88;;;;;;;7.51;95.75;100828.53;5021699;28;20026;-81
2021/10/12 04:13:05;;;;;;;9.43;3.00;;;;;;;7.54;94.85;100826.81;5033322;28;20053;-80
2021/10/12 04:15:31;;;;;;;11.77;3.25;;;;;;;7.62;94.87;100829.53;5019391;28;20045;-79
2021/10/12 04:17:56;;;;;;;10.48;3.50;;;;;;;7.65;94.10;100824.31;5028321;28;20102;-81
2021/10/12 04:20:25;;;;;;;13.00;3.85;;;;;;;7.62;93.83;100819.94;5020907;28;20030;-80
2021/10/12 04:22:51;;;;;;;13.80;3.50;;;;;;;7.55;93.32;100822.47;5017997;28;20148;-81
2021/10/12 04:25:16;;;;;;;12.13;3.92;;;;;;;7.50;93.75;100822.41;5011716;28;20057;-81
2021/10/12 04:27:41;;;;;;;13.93;5.22;;;;;;;7.45;93.57;100822.34;5015367;28;20061;-83
2021/10/12 04:30:07;;;;;;;11.25;4.20;;;;;;;7.40;93.51;100813.53;5012281;28;20423;-82
2021/10/12 04:32:32;;;;;;;15.18;5.88;;;;;;;7.35;93.74;100819.59;5016331;28;20635;-83
2021/10/12 04:34:58;;;;;;;13.57;5.15;;;;;;;7.33;93.95;100818.69;5013729;28;20042;-82
2021/10/12 04:37:23;;;;;;;11.98;4.90;;;;;;;7.31;93.94;100825.66;5012018;28;20053;-83
2021/10/12 04:39:49;;;;;;;15.77;6.13;;;;;;;7.35;93.52;100814.34;5031249;28;20045;-82
2021/10/12 04:42:15;;;;;;;9.10;4.88;;;;;;;7.34;93.94;100818.72;5013879;28;20112;-80
2021/10/12 04:44:40;;;;;;;11.77;4.35;;;;;;;7.42;94.19;100817.06;5008442;28;20068;-82
2021/10/12 04:47:06;;;;;;;8.68;5.05;;;;;;;7.46;93.69;100813.59;5007537;28;20030;-84
2021/10/12 04:49:31;;;;;;;15.48;6.43;;;;;;;7.54;93.76;100804.94;5006724;28;20404;-83
2021/10/12 04:51:57;;;;;;;13.93;5.93;;;;;;;7.57;94.02;100797.97;5031862;28;20093;-81
2021/10/12 04:54:22;;;;;;;11.45;5.38;;;;;;;7.54;93.20;100790.03;5009564;28;20041;-82
2021/10/12 04:56:48;;;;;;;11.20;5.63;;;;;;;7.51;93.34;100789.13;5011637;28;20488;-82
2021/10/12 04:59:13;;;;;;;11.63;5.28;;;;;;;7.46;93.04;100787.34;5007404;28;20034;-82
2021/10/12 05:01:38;;;;;;;15.27;6.00;;;;;;;7.36;94.03;100777.63;5005087;28;20053;-81
2021/10/12 05:04:04;;;;;;;10.80;4.95;;;;;;;7.39;93.51;100776.78;5007630;28;20033;-82
2021/10/12 05:06:29;;;;;;;14.27;6.70;;;;;;;7.36;93.60;100777.63;5011454;28;20034;-82
2021/10/12 05:08:55;;;;;;;14.77;7.00;;;;;;;7.30;93.73;100769.66;5013727;28;20044;-82
2021/10/12 05:11:20;;;;;;;13.63;6.40;;;;;;;7.29;94.19;100778.41;5009804;28;20048;-82
2021/10/12 05:13:47;;;;;;;18.08;7.15;;;;;;;7.33;94.15;100772.31;5017388;28;20038;-81
2021/10/12 05:16:13;;;;;;;14.32;6.82;;;;;;;7.33;94.44;100768.81;5008599;28;20049;-82
2021/10/12 05:18:42;;;;;;;13.30;5.68;;;;;;;7.32;94.17;100767.94;5008784;28;20045;-80
2021/10/12 05:21:07;;;;;;;14.60;6.43;;;;;;;7.33;94.47;100766.19;5004042;28;20467;-82
2021/10/12 05:23:33;;;;;;;11.10;7.03;;;;;;;7.33;94.07;100761.81;5008265;28;20038;-82
2021/10/12 05:25:58;;;;;;;11.70;6.10;;;;;;;7.34;94.46;100760.97;5005408;28;20089;-82
2021/10/12 05:28:24;;;;;;;13.18;6.70;;;;;;;7.34;94.48;100766.22;5007798;28;20419;-81
2021/10/12 05:30:50;;;;;;;17.23;7.15;;;;;;;7.34;94.10;100760.97;5008483;28;20089;-81
2021/10/12 05:33:17;;;;;;;12.75;7.30;;;;;;;7.36;94.37;100761.88;5006288;28;20045;-81
2021/10/12 05:35:44;;;;;;;13.63;7.18;;;;;;;7.38;94.34;100747.00;5021781;28;20042;-81
2021/10/12 05:38:09;;;;;;;12.70;6.90;;;;;;;7.43;94.36;100747.91;5006497;28;20481;-82
2021/10/12 05:40:35;;;;;;;14.43;6.18;;;;;;;7.48;93.90;100747.97;5006238;28;20038;-81
2021/10/12 05:43:00;;;;;;;15.93;6.97;;;;;;;7.48;94.10;100737.47;5022185;28;20042;-81
2021/10/12 05:45:26;;;;;;;14.80;7.65;;;;;;;7.52;94.06;100735.75;5005146;28;20037;-81
2021/10/12 05:47:51;;;;;;;14.73;7.47;;;;;;;7.52;93.60;100734.03;5009172;28;20042;-81
2021/10/12 05:50:17;;;;;;;16.67;6.75;;;;;;;7.54;93.58;100736.63;5007798;28;20038;-82
2021/10/12 05:52:47;;;;;;;9.57;6.32;;;;;;;7.52;93.86;100731.41;5004376;28;20041;-80
2021/10/12 05:55:18;;;;;;;13.35;7.10;;;;;;;7.50;94.01;100727.00;5006461;28;20076;-82
2021/10/12 05:58:30;;;;;;;17.13;5.95;;;;;;;7.56;93.67;100735.78;5004965;28;20042;-83
2021/10/12 06:00:29;;;;;;;12.73;7.22;;;;;;;7.63;93.59;100740.25;5001288;28;20046;-82
2021/10/12 06:02:54;;;;;;;16.35;6.72;;;;;;;7.67;93.58;100728.00;5021221;28;20125;-81
2021/10/12 06:05:19;;;;;;;10.95;6.57;;;;;;;7.74;93.43;100719.31;5005822;28;20033;-81
2021/10/12 06:07:45;;;;;;;14.52;6.88;;;;;;;7.80;92.64;100713.22;5010464;28;20136;-83
2021/10/12 06:10:10;;;;;;;12.15;6.35;;;;;;;7.83;92.43;100726.38;5006161;28;20470;-82
2021/10/12 06:12:36;;;;;;;13.75;6.68;;;;;;;7.87;92.71;100721.16;5002386;28;20085;-81
2021/10/12 06:15:01;;;;;;;15.02;6.40;;;;;;;7.97;92.21;100721.25;5007046;28;20038;-83
2021/10/12 06:17:26;;;;;;;12.90;6.97;;;;;;;8.09;92.13;100721.31;5004415;28;20404;-81
2021/10/12 06:19:52;;;;;;;16.45;8.00;;;;;;;8.23;91.69;100719.69;5007840;28;20455;-82
2021/10/12 06:22:17;;;;;;;11.30;6.05;;;;;;;8.27;90.98;100729.34;5003927;28;20092;-83
2021/10/12 06:24:42;;;;;;;14.20;6.00;;;;;;;8.33;91.27;100733.75;5006739;28;20030;-81
2021/10/12 06:27:08;;;;;;;11.95;5.28;;;;;;;8.42;90.69;100725.09;5004494;28;20057;-82
2021/10/12 06:29:33;;;;;;;11.63;5.72;;;;;;;8.50;90.61;100720.75;5006147;28;20042;-83
2021/10/12 06:31:58;;;;;;;10.45;4.88;;;;;;;8.59;89.68;100720.78;5004982;28;20038;-81
2021/10/12 06:34:24;;;;;;;10.45;5.20;;;;;;;8.69;90.22;100719.09;5004712;28;20041;-81
2021/10/12 06:36:49;;;;;;;12.82;5.15;;;;;;;8.80;89.68;100705.97;5004442;28;20037;-80
2021/10/12 06:39:14;;;;;;;10.70;5.00;;;;;;;8.94;88.59;100710.41;5019740;28;20106;-82
2021/10/12 06:41:40;;;;;;;18.35;9.52;;;;;;;9.04;88.82;100716.59;5006543;28;20037;-82
2021/10/12 06:44:06;;;;;;;9.90;5.57;;;;;;;9.11;88.22;100718.34;5018229;28;20390;-82
2021/10/12 06:46:33;;;;;;;8.18;4.32;;;;;;;9.16;87.70;100721.88;5007055;28;20421;-81
2021/10/12 06:48:58;;;;;;;8.80;4.35;;;;;;;9.14;86.68;100721.03;5018589;28;20038;-82
2021/10/12 06:51:23;;;;;;;10.05;4.75;;;;;;;9.13;87.25;100710.47;5006468;28;20042;-83
2021/10/12 06:53:49;;;;;;;10.90;4.43;;;;;;;9.17;87.46;100710.50;5018618;28;20117;-82
2021/10/12 06:56:14;;;;;;;11.77;3.85;;;;;;;9.29;87.43;100706.13;5005699;28;20045;-83
2021/10/12 06:58:40;;;;;;;12.02;4.30;;;;;;;9.38;86.53;100704.38;5019513;28;20077;-82
2021/10/12 07:01:05;;;;;;;12.55;4.57;;;;;;;9.37;87.18;100702.59;5020649;28;20049;-81
2021/10/12 07:03:30;;;;;;;8.93;3.92;;;;;;;9.44;86.58;100709.66;5004407;28;20072;-81
2021/10/12 07:05:56;;;;;;;9.05;3.67;;;;;;;9.45;85.61;100702.63;5004442;28;20046;-80
2021/10/12 07:08:21;;;;;;;12.35;4.65;;;;;;;9.51;86.35;100689.47;5005674;28;20045;-82
2021/10/12 07:10:46;;;;;;;9.73;4.40;;;;;;;9.60;85.92;100696.50;5003767;28;20038;-82
2021/10/12 07:13:13;;;;;;;8.27;4.38;;;;;;;9.59;84.63;100690.34;5021146;28;20082;-81
2021/10/12 07:15:40;;;;;;;9.38;3.67;;;;;;;9.61;84.73;100688.56;5002854;28;20034;-82
2021/10/12 07:18:06;;;;;;;9.05;3.47;;;;;;;9.70;84.79;100676.31;5008419;28;20034;-81
2021/10/12 07:20:31;;;;;;;11.05;3.83;;;;;;;9.73;83.64;100676.28;5006031;28;20550;-82
2021/10/12 07:22:56;;;;;;;12.70;3.92;;;;;;;9.78;84.30;100674.53;5008647;28;20724;-83
2021/10/12 07:25:21;;;;;;;12.07;4.32;;;;;;;9.89;83.38;100672.75;5012979;28;20454;-81
2021/10/12 07:27:47;;;;;;;7.38;3.33;;;;;;;9.90;83.68;100676.28;5009201;28;20531;-82
2021/10/12 07:30:12;;;;;;;12.05;3.95;;;;;;;9.91;82.92;100675.41;5010127;28;20081;-82
2021/10/12 07:32:38;;;;;;;10.43;4.15;;;;;;;9.96;83.24;100669.25;5010554;28;20109;-82
2021/10/12 07:35:05;;;;;;;8.95;3.20;;;;;;;10.13;83.58;100686.78;5019760;28;20042;-82
2021/10/12 07:37:30;;;;;;;11.15;3.95;;;;;;;10.28;82.71;100663.94;5003904;28;20038;-80
2021/10/12 07:39:56;;;;;;;9.00;3.75;;;;;;;10.38;82.32;100663.91;4987948;28;20377;-82
2021/10/12 07:42:21;;;;;;;9.18;2.95;;;;;;;10.42;81.74;100661.22;5018194;28;20038;-81
2021/10/12 07:44:46;;;;;;;9.30;3.03;;;;;;;10.53;81.34;100664.72;5006985;28;20057;-81
2021/10/12 07:47:12;;;;;;;7.90;3.08;;;;;;;10.51;81.95;100657.72;5003287;28;20066;-82
2021/10/12 07:49:37;;;;;;;9.05;3.15;;;;;;;10.61;81.98;100658.53;5006011;28;20038;-82
2021/10/12 07:52:07;;;;;;;8.05;3.08;;;;;;;10.79;80.72;100658.44;5002529;28;20045;-81
2021/10/12 07:54:45;;;;;;;8.70;2.85;;;;;;;10.79;80.54;100661.06;5005248;28;20496;-82
2021/10/12 07:57:14;;;;;;;6.05;2.80;;;;;;;10.80;80.38;100665.50;5007751;28;20069;-81
2021/10/12 07:59:39;;;;;;;6.70;2.72;;;;;;;10.81;80.56;100661.09;5005845;28;20014;-82
2021/10/12 08:02:06;;;;;;;10.80;2.88;;;;;;;10.94;80.83;100666.28;4987079;28;20041;-82
2021/10/12 08:04:32;;;;;;;8.50;2.75;;;;;;;11.09;79.55;100669.75;5002521;28;20555;-82
2021/10/12 08:06:57;;;;;;;8.57;2.60;;;;;;;11.04;80.01;100667.13;5020747;28;20050;-82
2021/10/12 08:09:22;;;;;;;9.90;3.55;;;;;;;10.94;80.18;100661.00;5007495;28;20037;-82
2021/10/12 08:11:47;;;;;;;6.88;2.58;;;;;;;10.90;79.23;100661.06;5008269;28;20085;-82
2021/10/12 08:14:17;;;;;;;8.05;2.58;;;;;;;10.76;80.93;100653.19;5009144;28;20038;-82
2021/10/12 08:16:44;;;;;;;6.57;2.78;;;;;;;10.71;81.23;100650.56;5005505;28;20091;-82
2021/10/12 08:19:09;;;;;;;10.40;2.45;;;;;;;10.66;81.65;100646.19;5009074;28;20482;-83
2021/10/12 08:21:35;;;;;;;9.65;2.90;;;;;;;10.65;81.68;100640.03;5009414;28;20041;-81
2021/10/12 08:24:02;;;;;;;10.80;2.97;;;;;;;10.54;82.35;100649.78;5019977;28;20485;-81
2021/10/12 08:26:28;;;;;;;8.13;2.50;;;;;;;10.41;82.86;100642.78;5003782;28;20046;-83
2021/10/12 08:28:55;;;;;;;9.55;2.90;;;;;;;10.22;83.39;100634.91;5002896;28;20103;-81
2021/10/12 08:31:20;;;;;;;8.93;2.88;;;;;;;10.16;83.59;100639.31;5001931;28;20105;-81
2021/10/12 08:33:46;;;;;;;7.57;2.80;;;;;;;10.16;84.69;100649.84;5004009;28;20069;-81
2021/10/12 08:36:13;;;;;;;10.63;3.08;;;;;;;10.03;85.47;100636.72;5017442;28;20069;-80
2021/10/12 08:38:40;;;;;;;8.27;3.20;;;;;;;10.05;85.68;100636.69;5019441;28;20033;-81
2021/10/12 08:41:05;;;;;;;7.13;2.53;;;;;;;9.97;86.35;100626.16;5009411;28;20033;-81
2021/10/12 08:43:34;;;;;;;9.23;2.92;;;;;;;9.91;86.81;100642.00;5007850;28;20073;-82
2021/10/12 08:46:00;;;;;;;7.28;2.63;;;;;;;9.88;87.53;100623.56;5004778;28;20116;-81
2021/10/12 08:48:27;;;;;;;7.18;2.88;;;;;;;9.92;87.04;100625.28;5002521;28;20041;-81
2021/10/12 08:50:53;;;;;;;11.18;2.90;;;;;;;9.93;87.26;100628.81;5018080;28;20042;-81
2021/10/12 08:53:18;;;;;;;7.40;2.92;;;;;;;9.93;87.57;100627.06;5020816;28;20087;-81
2021/10/12 08:55:44;;;;;;;9.02;2.55;;;;;;;9.99;87.85;100628.81;5004311;28;20027;-81
2021/10/12 08:58:12;;;;;;;12.23;3.50;;;;;;;10.00;87.81;100623.53;5007063;28;20516;-81
2021/10/12 09:00:38;;;;;;;9.05;3.17;;;;;;;10.15;87.63;100622.59;5003637;28;20065;-81
2021/10/12 09:03:16;;;;;;;9.05;2.80;;;;;;;10.29;86.98;100614.69;5002691;28;20030;-81
2021/10/12 09:05:52;;;;;;;10.38;3.20;;;;;;;10.30;86.36;100616.44;5005051;28;20057;-82
2021/10/12 09:08:35;;;;;;;8.32;3.08;;;;;;;10.39;87.14;100600.56;5020608;28;20037;-80
2021/10/12 09:11:03;;;;;;;8.05;3.05;;;;;;;10.54;87.25;100602.28;5007142;28;20034;-82
2021/10/12 09:13:28;;;;;;;8.43;2.90;;;;;;;10.67;86.36;100590.75;5019175;28;20034;-81
2021/10/12 09:16:07;;;;;;;9.25;2.97;;;;;;;10.71;84.38;100594.25;5030318;28;20117;-81
2021/10/12 09:18:53;;;;;;;5.68;2.55;;;;;;;10.96;83.50;100597.63;5011787;28;20088;-84
2021/10/12 09:21:36;;;;;;;8.73;2.20;;;;;;;11.11;82.20;100586.09;5007922;28;20022;-82
2021/10/12 09:24:10;;;;;;;4.45;2.08;;;;;;;11.40;81.09;100585.84;5005795;28;20042;-82
2021/10/12 09:26:42;;;;;;;4.05;1.80;;;;;;;11.56;79.96;100583.94;5005797;28;20034;-81
2021/10/12 09:29:17;;;;;;;3.70;1.88;;;;;;;11.73;78.77;100579.34;5022717;28;20046;-83
2021/10/12 09:31:45;;;;;;;3.80;1.60;;;;;;;11.40;77.72;100585.84;5010956;28;20033;-83
2021/10/12 09:34:12;;;;;;;5.38;2.28;;;;;;;11.34;78.77;100583.25;5009146;28;20065;-82
2021/10/12 09:36:43;;;;;;;4.63;2.28;;;;;;;11.30;80.10;100571.84;5013277;28;20040;-82
2021/10/12 09:39:14;;;;;;;5.25;1.88;;;;;;;11.43;78.32;100556.75;5004187;28;20533;-82
2021/10/12 09:41:42;;;;;;;4.00;1.80;;;;;;;11.55;78.57;100547.81;5003587;28;20034;-82
2021/10/12 09:44:16;;;;;;;4.05;1.80;;;;;;;11.65;78.63;100552.13;5007871;28;20033;-83
2021/10/12 09:46:46;;;;;;;5.47;2.05;;;;;;;11.81;77.95;100545.75;5003912;28;20038;-82
2021/10/12 09:49:21;;;;;;;6.03;2.00;;;;;;;11.91;77.37;100554.53;5008424;28;20038;-82
2021/10/12 09:52:13;;;;;;;4.47;1.48;;;;;;;11.88;76.58;100549.28;5009153;28;20041;-81
2021/10/12 09:54:49;;;;;;;4.30;1.48;;;;;;;11.97;76.15;100545.63;5009909;28;20038;-82
2021/10/12 09:57:28;;;;;;;5.82;1.92;;;;;;;12.08;76.79;100543.75;5015633;28;20065;-82
2021/10/12 09:59:53;;;;;;;4.10;1.67;;;;;;;12.15;76.49;100547.19;5022654;28;20495;-79
2021/10/12 10:02:21;;;;;;;6.50;2.40;;;;;;;12.22;76.25;100536.50;5009734;28;20121;-79
2021/10/12 10:04:48;;;;;;;5.10;1.65;;;;;;;11.99;75.82;100543.84;5027846;28;20041;-79
2021/10/12 10:07:23;;;;;;;3.92;1.85;;;;;;;11.80;77.22;100536.09;5009396;28;20069;-79
2021/10/12 10:09:54;;;;;;;4.43;1.88;;;;;;;11.77;78.16;100535.28;5023972;28;20100;-80
2021/10/12 10:12:20;;;;;;;6.70;1.85;;;;;;;11.62;76.91;100531.88;5008228;28;20045;-79
2021/10/12 10:14:45;;;;;;;6.70;2.03;;;;;;;11.45;79.20;100532.94;5006826;28;20043;-79
2021/10/12 10:17:13;;;;;;;5.80;2.15;;;;;;;11.35;79.54;100519.81;5011344;28;20030;-80
2021/10/12 10:19:44;;;;;;;4.90;1.85;;;;;;;11.31;79.32;100515.44;5008713;28;20022;-79
2021/10/12 10:22:35;;;;;;;5.53;2.05;;;;;;;11.22;79.95;100507.63;5026146;28;20034;-80
2021/10/12 10:25:28;;;;;;;7.10;4.30;;;;;;;11.21;80.65;100511.13;5003562;28;20042;-80
2021/10/12 10:27:56;;;;;;;8.73;2.10;;;;;;;11.11;79.48;100498.94;5023174;28;20107;-79
2021/10/12 10:30:33;;;;;;;3.63;1.63;;;;;;;11.02;80.36;100530.69;5029829;28;20040;-79
2021/10/12 10:33:02;;;;;;;3.95;1.60;;;;;;;11.08;80.32;100520.06;5012534;28;20034;-79
2021/10/12 10:35:42;;;;;;;5.32;1.90;;;;;;;11.08;81.84;100530.63;5014898;28;20041;-78
2021/10/12 10:38:19;;;;;;;7.05;2.00;;;;;;;10.92;81.64;100522.81;5015196;28;20073;-79
2021/10/12 10:40:49;;;;;;;3.85;1.30;;;;;;;10.79;83.36;100520.28;5008663;28;20030;-78
2021/10/12 10:43:14;;;;;;;5.30;1.98;;;;;;;10.62;84.24;100518.66;5020427;28;20030;-79
2021/10/12 10:45:46;;;;;;;3.72;1.70;;;;;;;10.64;84.87;100500.19;5007796;28;20049;-79
2021/10/12 10:48:13;;;;;;;3.90;1.70;;;;;;;10.62;84.04;100509.84;5006139;28;20054;-79
2021/10/12 10:50:39;;;;;;;4.32;1.50;;;;;;;10.61;83.99;100501.06;5006227;28;20076;-79
2021/10/12 10:53:08;;;;;;;5.90;1.55;;;;;;;10.52;83.53;100495.84;5009338;28;20485;-79
2021/10/12 10:55:36;;;;;;;3.65;1.30;;;;;;;10.51;83.57;100497.59;5006700;28;20041;-80
2021/10/12 10:58:27;;;;;;;5.35;1.85;;;;;;;10.39;83.86;100496.81;5005638;28;20039;-79
2021/10/12 11:00:54;;;;;;;5.05;1.90;;;;;;;10.43;84.20;100499.41;5010980;28;20042;-79
2021/10/12 11:03:25;;;;;;;3.38;1.88;;;;;;;10.50;84.83;100487.91;5005891;28;20396;-79
2021/10/12 11:05:52;;;;;;;4.13;1.88;;;;;;;10.62;84.36;100483.47;5005931;28;20046;-79
2021/10/12 11:08:19;;;;;;;4.85;1.73;;;;;;;10.62;83.80;100478.19;5009139;28;20087;-79
2021/10/12 11:10:48;;;;;;;6.55;1.80;;;;;;;10.74;83.52;100476.34;5004645;28;20049;-78
2021/10/12 11:13:38;;;;;;;6.40;2.55;;;;;;;10.80;82.93;100469.25;5004656;28;20034;-80
2021/10/12 11:16:09;;;;;;;3.15;1.45;;;;;;;10.84;82.98;100469.19;5005819;28;20037;-79
2021/10/12 11:18:35;;;;;;;7.05;1.90;;;;;;;11.01;82.28;100461.16;5005193;28;20030;-79
2021/10/12 11:21:04;;;;;;;5.38;2.13;;;;;;;11.14;81.51;100459.28;5005677;28;20046;-79
2021/10/12 11:23:35;;;;;;;4.18;2.00;;;;;;;11.20;81.54;100453.91;5004598;28;20039;-78
2021/10/12 11:26:12;;;;;;;6.82;2.13;;;;;;;11.24;80.87;100450.38;5019872;28;20044;-79